createdAt,value
2022-11-29T00:01:34.345Z,11.75
2022-11-29T00:04:01.220Z,12.35
2022-11-29T00:06:30.557Z,11.93
2022-11-29T00:08:58.925Z,10.88
2022-11-29T00:11:46.414Z,10.70
2022-11-29T00:14:15.263Z,18.70
2022-11-29T00:16:42.076Z,11.73
2022-11-29T00:19:09.854Z,12.30
2022-11-29T00:21:36.654Z,25.63
2022-11-29T00:24:03.579Z,21.25
2022-11-29T00:26:30.246Z,22.35
2022-11-29T00:28:56.997Z,28.88
2022-11-29T00:31:30.424Z,29.27
2022-11-29T00:33:58.123Z,40.47
2022-11-29T00:36:24.882Z,49.63
2022-11-29T00:38:51.576Z,56.10
2022-11-29T00:41:18.335Z,39.83
2022-11-29T00:43:45.041Z,41.03
2022-11-29T00:46:12.658Z,34.78
2022-11-29T00:48:39.406Z,50.53
2022-11-29T00:51:06.201Z,39.15
2022-11-29T00:53:33.875Z,36.13
2022-11-29T00:56:00.614Z,58.20
2022-11-29T00:58:28.186Z,39.35
2022-11-29T01:00:55.099Z,33.65
2022-11-29T01:03:21.857Z,36.80
2022-11-29T01:05:48.885Z,26.20
2022-11-29T01:08:15.676Z,28.70
2022-11-29T01:10:42.455Z,31.95
2022-11-29T01:13:09.818Z,34.50
2022-11-29T01:15:36.906Z,31.23
2022-11-29T01:18:03.702Z,24.77
2022-11-29T01:20:30.392Z,29.48
2022-11-29T01:22:57.047Z,25.33
2022-11-29T01:25:23.767Z,30.77
2022-11-29T01:27:50.516Z,23.98
2022-11-29T01:30:17.326Z,28.35
2022-11-29T01:32:44.116Z,30.02
2022-11-29T01:35:10.869Z,30.33
2022-11-29T01:37:37.551Z,23.25
2022-11-29T01:40:04.795Z,23.63
2022-11-29T01:42:31.469Z,24.88
2022-11-29T01:45:25.469Z,25.80
2022-11-29T01:47:54.563Z,30.80
2022-11-29T01:50:21.298Z,28.55
2022-11-29T01:52:48.054Z,27.35
2022-11-29T01:55:14.787Z,34.80
2022-11-29T01:57:42.121Z,31.83
2022-11-29T02:00:13.530Z,29.17
2022-11-29T02:02:51.702Z,35.15
2022-11-29T02:05:18.543Z,34.30
2022-11-29T02:07:46.847Z,40.38
2022-11-29T02:10:13.883Z,34.45
2022-11-29T02:12:44.682Z,32.90
2022-11-29T02:15:29.676Z,35.45
2022-11-29T02:18:12.582Z,32.47
2022-11-29T02:20:48.968Z,37.00
2022-11-29T02:23:44.428Z,38.97
2022-11-29T02:26:29.139Z,33.50
2022-11-29T02:29:26.890Z,44.97
2022-11-29T02:31:58.537Z,42.78
2022-11-29T02:34:51.596Z,35.97
2022-11-29T02:37:36.513Z,40.50
2022-11-29T02:40:41.783Z,38.35
2022-11-29T02:43:20.530Z,37.88
2022-11-29T02:45:56.519Z,34.08
2022-11-29T02:48:33.543Z,38.13
2022-11-29T02:51:15.083Z,49.67
2022-11-29T02:53:50.953Z,44.95
2022-11-29T02:56:21.367Z,37.47
2022-11-29T02:59:20.378Z,40.72
2022-11-29T03:02:02.510Z,40.20
2022-11-29T03:04:34.851Z,38.25
2022-11-29T03:07:52.399Z,39.15
2022-11-29T03:10:38.879Z,34.13
2022-11-29T03:13:08.543Z,37.60
2022-11-29T03:15:44.791Z,43.13
2022-11-29T03:18:34.440Z,34.53
2022-11-29T03:21:35.237Z,32.17
2022-11-29T03:24:25.054Z,38.65
2022-11-29T03:27:01.928Z,37.10
2022-11-29T03:29:48.156Z,46.00
2022-11-29T03:32:23.128Z,39.03
2022-11-29T03:35:13.564Z,35.90
2022-11-29T03:37:58.187Z,29.83
2022-11-29T03:40:48.490Z,27.15
2022-11-29T03:43:40.978Z,36.92
2022-11-29T03:46:12.805Z,34.20
2022-11-29T03:48:51.694Z,32.88
2022-11-29T03:52:02.789Z,31.42
2022-11-29T03:54:37.620Z,32.95
2022-11-29T03:57:04.759Z,32.80
2022-11-29T03:59:41.782Z,34.75
2022-11-29T04:02:42.818Z,34.65
2022-11-29T04:05:18.166Z,23.15
2022-11-29T04:08:08.147Z,39.80
2022-11-29T04:11:08.579Z,29.40
2022-11-29T04:13:53.751Z,26.30
2022-11-29T04:16:31.741Z,23.98
2022-11-29T04:19:11.652Z,27.98
2022-11-29T04:21:56.553Z,29.80
2022-11-29T04:24:44.671Z,33.83
2022-11-29T04:27:20.420Z,34.88
2022-11-29T04:30:11.579Z,24.83
2022-11-29T04:32:56.496Z,31.90
2022-11-29T04:35:48.437Z,26.27
2022-11-29T04:38:36.261Z,24.10
2022-11-29T04:41:34.011Z,33.00
2022-11-29T04:44:26.569Z,30.77
2022-11-29T04:47:05.058Z,27.92
2022-11-29T04:49:42.107Z,35.25
2022-11-29T04:52:23.140Z,29.13
2022-11-29T04:54:55.697Z,32.13
2022-11-29T04:57:22.336Z,27.42
2022-11-29T05:00:10.241Z,33.25
2022-11-29T05:02:55.784Z,30.08
2022-11-29T05:05:49.411Z,27.85
2022-11-29T05:08:46.891Z,27.25
2022-11-29T05:11:25.046Z,27.05
2022-11-29T05:13:53.417Z,25.77
2022-11-29T05:16:23.598Z,27.60
2022-11-29T05:19:27.092Z,22.25
2022-11-29T05:22:32.833Z,22.20
2022-11-29T05:25:15.475Z,29.40
2022-11-29T05:27:54.159Z,33.00
2022-11-29T05:30:22.298Z,27.65
2022-11-29T05:32:51.915Z,29.67
2022-11-29T05:35:21.612Z,24.98
2022-11-29T05:37:53.433Z,26.13
2022-11-29T05:40:45.299Z,31.67
2022-11-29T05:43:38.510Z,22.70
2022-11-29T05:46:50.521Z,25.67
2022-11-29T05:49:19.278Z,25.10
2022-11-29T05:52:04.138Z,27.17
2022-11-29T05:54:37.617Z,27.10
2022-11-29T05:57:14.994Z,25.13
2022-11-29T05:59:42.061Z,29.83
2022-11-29T06:02:15.581Z,30.67
2022-11-29T06:05:06.504Z,28.63
2022-11-29T06:07:40.669Z,18.38
2022-11-29T06:10:13.155Z,24.15
2022-11-29T06:12:40.166Z,23.02
2022-11-29T06:15:17.140Z,22.80
2022-11-29T06:17:55.220Z,27.48
2022-11-29T06:21:00.683Z,28.15
2022-11-29T06:24:14.794Z,21.25
2022-11-29T06:26:47.515Z,25.30
2022-11-29T06:29:44.910Z,26.67
2022-11-29T06:32:27.912Z,23.25
2022-11-29T06:34:59.221Z,23.23
2022-11-29T06:37:36.950Z,21.00
2022-11-29T06:40:04.762Z,17.55
2022-11-29T06:42:31.447Z,19.95
2022-11-29T06:44:58.403Z,20.30
2022-11-29T06:47:29.219Z,21.48
2022-11-29T06:50:14.473Z,20.95
2022-11-29T06:52:51.784Z,28.05
2022-11-29T06:55:24.614Z,17.08
2022-11-29T06:57:51.255Z,14.40
2022-11-29T07:00:20.631Z,12.85
2022-11-29T07:03:32.093Z,12.82
2022-11-29T07:05:58.981Z,12.27
2022-11-29T07:08:26.302Z,17.65
2022-11-29T07:10:54.865Z,13.82
2022-11-29T07:13:21.883Z,15.80
2022-11-29T07:16:06.280Z,21.27
2022-11-29T07:21:22.120Z,18.23
2022-11-29T07:24:14.491Z,13.48
2022-11-29T07:26:48.440Z,13.38
2022-11-29T07:29:20.920Z,17.88
2022-11-29T07:32:09.810Z,20.13
2022-11-29T07:34:52.833Z,15.48
2022-11-29T07:37:43.706Z,13.95
2022-11-29T07:40:22.351Z,14.38
2022-11-29T07:43:01.058Z,13.50
2022-11-29T07:45:36.189Z,11.40
2022-11-29T07:48:03.024Z,16.75
2022-11-29T07:50:29.823Z,12.95
2022-11-29T07:52:56.560Z,16.92
2022-11-29T07:55:24.682Z,14.55
2022-11-29T07:57:51.669Z,23.77
2022-11-29T08:00:19.294Z,12.27
2022-11-29T08:02:48.627Z,17.15
2022-11-29T08:05:15.466Z,20.00
2022-11-29T08:07:42.383Z,15.68
2022-11-29T08:10:11.620Z,14.70
2022-11-29T08:12:46.722Z,14.48
2022-11-29T08:15:13.851Z,16.50
2022-11-29T08:17:40.575Z,13.63
2022-11-29T08:20:08.302Z,18.45
2022-11-29T08:22:35.137Z,15.90
2022-11-29T08:25:01.980Z,20.35
2022-11-29T08:27:28.788Z,14.90
2022-11-29T08:29:55.486Z,25.05
2022-11-29T08:32:22.436Z,20.13
2022-11-29T08:34:49.122Z,20.20
2022-11-29T08:37:15.808Z,17.48
2022-11-29T08:39:42.712Z,15.07
2022-11-29T08:42:09.505Z,18.45
2022-11-29T08:44:36.232Z,15.23
2022-11-29T08:47:21.415Z,21.02
2022-11-29T08:50:03.469Z,15.38
2022-11-29T08:52:52.387Z,18.08
2022-11-29T08:55:23.595Z,20.25
2022-11-29T08:57:50.717Z,18.42
2022-11-29T09:00:18.119Z,18.23
2022-11-29T09:02:45.080Z,24.33
2022-11-29T09:05:11.883Z,17.05
2022-11-29T09:07:38.872Z,21.67
2022-11-29T09:10:08.192Z,18.67
2022-11-29T09:12:38.836Z,14.27
2022-11-29T09:15:06.917Z,14.30
2022-11-29T09:17:33.702Z,11.75
2022-11-29T09:20:00.493Z,13.82
2022-11-29T09:22:27.249Z,13.18
2022-11-29T09:24:54.046Z,15.40
2022-11-29T09:27:20.718Z,14.02
2022-11-29T09:29:47.418Z,15.90
2022-11-29T09:32:14.152Z,15.07
2022-11-29T09:34:42.236Z,12.98
2022-11-29T09:37:09.049Z,13.95
2022-11-29T09:39:35.864Z,13.07
2022-11-29T09:42:24.109Z,16.08
2022-11-29T09:45:06.890Z,10.40
2022-11-29T09:48:14.814Z,14.63
2022-11-29T09:50:46.748Z,13.45
2022-11-29T09:53:19.325Z,14.75
2022-11-29T09:56:25.760Z,13.93
2022-11-29T09:58:58.712Z,15.05
2022-11-29T10:01:28.660Z,14.63
2022-11-29T10:04:01.213Z,13.18
2022-11-29T10:06:36.723Z,15.57
2022-11-29T10:09:22.783Z,15.43
2022-11-29T10:12:12.492Z,13.90
2022-11-29T10:15:14.075Z,18.55
2022-11-29T10:17:47.222Z,13.48
2022-11-29T10:20:19.165Z,17.30
2022-11-29T10:22:56.051Z,17.55
2022-11-29T10:25:32.225Z,14.43
2022-11-29T10:27:58.941Z,15.25
2022-11-29T10:30:25.808Z,11.20
2022-11-29T10:32:56.535Z,14.23
2022-11-29T10:35:23.268Z,10.02
2022-11-29T10:38:22.612Z,18.85
2022-11-29T10:40:39.114Z,18.15
2022-11-29T10:43:05.855Z,10.88
2022-11-29T10:45:55.977Z,12.98
2022-11-29T10:48:25.057Z,18.05
2022-11-29T10:50:52.148Z,13.27
2022-11-29T10:53:35.694Z,15.50
2022-11-29T10:56:24.209Z,13.07
2022-11-29T10:59:09.403Z,13.15
2022-11-29T11:01:38.193Z,12.63
2022-11-29T11:04:07.331Z,15.00
2022-11-29T11:06:47.757Z,14.43
2022-11-29T11:09:22.560Z,13.45
2022-11-29T11:11:57.265Z,15.15
2022-11-29T11:14:27.059Z,14.73
2022-11-29T11:16:54.074Z,18.45
2022-11-29T11:19:33.798Z,18.55
2022-11-29T11:22:01.726Z,14.10
2022-11-29T11:24:33.029Z,12.50
2022-11-29T11:26:59.860Z,15.60
2022-11-29T11:29:38.055Z,20.15
2022-11-29T11:32:04.898Z,12.90
2022-11-29T11:34:38.167Z,15.57
2022-11-29T11:37:25.467Z,17.05
2022-11-29T11:39:57.485Z,15.70
2022-11-29T11:42:37.699Z,16.88
2022-11-29T11:45:10.523Z,15.40
2022-11-29T11:47:42.526Z,20.95
2022-11-29T11:50:13.319Z,19.05
2022-11-29T11:52:42.031Z,19.95
2022-11-29T11:55:38.120Z,19.48
2022-11-29T11:58:14.381Z,18.50
2022-11-29T12:01:09.386Z,16.05
2022-11-29T12:03:56.062Z,16.85
2022-11-29T12:06:30.252Z,15.23
2022-11-29T12:09:23.099Z,18.60
2022-11-29T12:12:17.732Z,19.33
2022-11-29T12:17:32.263Z,19.83
2022-11-29T12:20:20.613Z,21.60
2022-11-29T12:23:06.642Z,21.20
2022-11-29T12:25:41.069Z,24.05
2022-11-29T12:28:20.064Z,32.08
2022-11-29T12:31:16.020Z,24.70
2022-11-29T12:34:03.795Z,21.75
2022-11-29T12:36:42.665Z,18.80
2022-11-29T12:39:28.207Z,23.48
2022-11-29T12:42:11.833Z,16.02
2022-11-29T12:44:46.143Z,22.23
2022-11-29T12:47:55.136Z,20.05
2022-11-29T12:50:39.978Z,19.75
2022-11-29T12:53:34.280Z,18.23
2022-11-29T12:56:19.965Z,14.85
2022-11-29T12:59:15.835Z,16.65
2022-11-29T13:02:11.982Z,18.00
2022-11-29T13:05:04.669Z,15.50
2022-11-29T13:07:55.851Z,15.32
2022-11-29T13:10:49.247Z,14.60
2022-11-29T13:13:21.799Z,12.13
2022-11-29T13:16:08.703Z,15.32
2022-11-29T13:18:41.794Z,10.32
2022-11-29T13:21:16.837Z,12.65
2022-11-29T13:24:07.729Z,9.32
2022-11-29T13:26:33.830Z,10.82
2022-11-29T13:29:00.678Z,13.85
2022-11-29T13:31:27.560Z,12.25
2022-11-29T13:33:58.364Z,14.02
2022-11-29T13:36:46.096Z,11.60
2022-11-29T13:39:27.730Z,11.65
2022-11-29T13:42:19.820Z,18.70
2022-11-29T13:45:04.905Z,11.98
2022-11-29T13:47:31.631Z,13.25
2022-11-29T13:50:03.627Z,12.98
2022-11-29T13:52:44.220Z,16.13
2022-11-29T13:55:11.481Z,13.75
2022-11-29T13:58:19.461Z,11.43
2022-11-29T14:00:44.082Z,13.65
2022-11-29T14:03:36.228Z,12.35
2022-11-29T14:06:10.124Z,19.60
2022-11-29T14:09:19.412Z,13.70
2022-11-29T14:11:58.953Z,11.73
2022-11-29T14:14:41.496Z,14.95
2022-11-29T14:17:32.323Z,14.57
2022-11-29T14:20:24.951Z,18.65
2022-11-29T14:23:07.674Z,13.30
2022-11-29T14:25:51.030Z,14.00
2022-11-29T14:28:21.603Z,14.80
2022-11-29T14:30:50.096Z,12.02
2022-11-29T14:33:37.928Z,15.35
2022-11-29T14:36:20.138Z,12.18
2022-11-29T14:39:11.403Z,14.45
2022-11-29T14:41:47.275Z,12.43
2022-11-29T14:44:28.277Z,11.63
2022-11-29T14:47:05.294Z,11.45
2022-11-29T14:49:38.012Z,11.90
2022-11-29T14:52:13.555Z,16.15
2022-11-29T14:55:00.390Z,12.90
2022-11-29T14:57:51.958Z,12.18
2022-11-29T15:00:28.366Z,11.02
2022-11-29T15:03:00.985Z,18.27
2022-11-29T15:05:38.812Z,9.10
2022-11-29T15:08:09.682Z,16.02
2022-11-29T15:10:41.472Z,12.55
2022-11-29T15:13:11.611Z,11.68
2022-11-29T15:16:23.391Z,12.88
2022-11-29T15:19:28.755Z,10.55
2022-11-29T15:22:13.874Z,11.18
2022-11-29T15:25:13.279Z,14.10
2022-11-29T15:27:56.182Z,13.00
2022-11-29T15:30:29.143Z,15.30
2022-11-29T15:32:56.499Z,13.48
2022-11-29T15:35:23.358Z,12.38
2022-11-29T15:37:59.186Z,15.05
2022-11-29T15:40:37.276Z,14.13
2022-11-29T15:43:23.722Z,14.90
2022-11-29T15:45:55.452Z,19.20
2022-11-29T15:48:32.403Z,11.75
2022-11-29T15:51:29.288Z,18.30
2022-11-29T15:54:13.893Z,14.77
2022-11-29T15:56:44.900Z,20.45
2022-11-29T15:59:17.973Z,17.02
2022-11-29T16:01:45.723Z,16.02
2022-11-29T16:04:17.990Z,15.68
2022-11-29T16:06:44.686Z,16.17
2022-11-29T16:09:13.991Z,16.98
2022-11-29T16:11:40.701Z,16.05
2022-11-29T16:14:28.699Z,17.05
2022-11-29T16:16:57.159Z,17.25
2022-11-29T16:19:36.926Z,20.80
2022-11-29T16:22:14.512Z,22.23
2022-11-29T16:24:53.665Z,19.67
2022-11-29T16:27:20.978Z,17.45
2022-11-29T16:29:48.051Z,18.35
2022-11-29T16:32:25.615Z,18.92
2022-11-29T16:34:52.643Z,22.40
2022-11-29T16:37:26.179Z,18.00
2022-11-29T16:39:56.813Z,18.35
2022-11-29T16:42:33.726Z,20.75
2022-11-29T16:45:07.159Z,19.92
2022-11-29T16:47:58.122Z,17.55
2022-11-29T16:50:28.045Z,22.70
2022-11-29T16:52:56.773Z,15.63
2022-11-29T16:55:23.851Z,18.60
2022-11-29T16:57:52.010Z,17.05
2022-11-29T17:00:30.898Z,17.58
2022-11-29T17:02:58.482Z,18.95
2022-11-29T17:05:25.386Z,20.77
2022-11-29T17:07:52.156Z,20.08
2022-11-29T17:10:21.516Z,17.58
2022-11-29T17:12:48.642Z,21.92
2022-11-29T17:15:15.459Z,29.17
2022-11-29T17:17:45.569Z,20.27
2022-11-29T17:20:13.100Z,26.13
2022-11-29T17:22:39.856Z,27.60
2022-11-29T17:25:06.829Z,27.08
2022-11-29T17:27:33.522Z,20.10
2022-11-29T17:30:00.402Z,28.17
2022-11-29T17:32:27.348Z,26.48
2022-11-29T17:34:54.283Z,29.27
2022-11-29T17:37:20.977Z,28.67
2022-11-29T17:39:49.115Z,25.17
2022-11-29T17:42:16.031Z,24.73
2022-11-29T17:44:42.729Z,26.27
2022-11-29T17:47:09.409Z,22.17
2022-11-29T17:49:36.149Z,33.97
2022-11-29T17:52:02.958Z,27.27
2022-11-29T17:54:44.525Z,26.15
2022-11-29T17:57:12.585Z,32.65
2022-11-29T17:59:39.293Z,29.23
2022-11-29T18:02:06.011Z,30.20
2022-11-29T18:04:32.796Z,36.75
2022-11-29T18:07:00.125Z,28.13
2022-11-29T18:09:26.814Z,28.08
2022-11-29T18:11:53.504Z,28.88
2022-11-29T18:14:22.944Z,31.58
2022-11-29T18:16:50.211Z,24.52
2022-11-29T18:19:18.460Z,26.42
2022-11-29T18:21:45.486Z,22.77
2022-11-29T18:24:12.200Z,25.38
2022-11-29T18:26:39.099Z,22.00
2022-11-29T18:29:06.222Z,24.75
2022-11-29T18:31:37.555Z,31.30
2022-11-29T18:34:09.633Z,28.38
2022-11-29T18:36:38.458Z,28.05
2022-11-29T18:39:08.510Z,33.45
2022-11-29T18:41:35.355Z,29.20
2022-11-29T18:44:09.718Z,30.25
2022-11-29T18:46:37.430Z,35.92
2022-11-29T18:49:05.597Z,33.53
2022-11-29T18:51:32.743Z,34.30
2022-11-29T18:53:59.582Z,32.05
2022-11-29T18:56:27.937Z,34.53
2022-11-29T18:58:58.375Z,35.20
2022-11-29T19:01:26.831Z,30.88
2022-11-29T19:03:55.038Z,35.78
2022-11-29T19:06:23.428Z,39.38
2022-11-29T19:08:50.276Z,40.22
2022-11-29T19:11:21.390Z,34.75
2022-11-29T19:13:48.445Z,36.15
2022-11-29T19:16:17.186Z,40.72
2022-11-29T19:18:44.994Z,43.35
2022-11-29T19:21:15.494Z,37.92
2022-11-29T19:23:42.683Z,38.75
2022-11-29T19:26:11.011Z,39.88
2022-11-29T19:28:38.711Z,36.95
2022-11-29T19:31:05.719Z,46.78
2022-11-29T19:33:33.684Z,42.38
2022-11-29T19:36:07.799Z,38.92
2022-11-29T19:41:07.174Z,44.45
2022-11-29T19:43:33.963Z,40.45
2022-11-29T19:46:06.144Z,44.92
2022-11-29T19:48:32.957Z,46.95
2022-11-29T19:51:00.429Z,47.78
2022-11-29T19:53:27.132Z,51.60
2022-11-29T19:55:53.804Z,46.60
2022-11-29T19:58:23.446Z,43.30
2022-11-29T20:00:50.143Z,43.10
2022-11-29T20:03:16.827Z,41.15
2022-11-29T20:05:43.879Z,44.28
2022-11-29T20:08:10.606Z,50.25
2022-11-29T20:10:37.346Z,43.50
2022-11-29T20:13:04.032Z,43.75
2022-11-29T20:15:30.860Z,49.65
2022-11-29T20:17:58.881Z,43.65
2022-11-29T20:20:25.722Z,45.25
2022-11-29T20:22:52.619Z,51.80
2022-11-29T20:25:19.360Z,50.78
2022-11-29T20:27:46.068Z,50.90
2022-11-29T20:30:13.559Z,44.75
2022-11-29T20:32:40.605Z,47.20
2022-11-29T20:35:09.086Z,39.83
2022-11-29T20:38:02.972Z,50.33
2022-11-29T20:40:44.042Z,47.22
2022-11-29T20:43:12.746Z,44.17
2022-11-29T20:45:39.720Z,49.25
2022-11-29T20:48:25.777Z,43.30
2022-11-29T20:50:59.976Z,49.58
2022-11-29T20:53:36.255Z,55.22
2022-11-29T20:56:03.599Z,47.50
2022-11-29T20:58:31.353Z,49.45
2022-11-29T21:00:58.373Z,50.70
2022-11-29T21:03:28.401Z,45.65
2022-11-29T21:05:55.565Z,46.90
2022-11-29T21:08:32.743Z,44.75
2022-11-29T21:11:10.283Z,56.95
2022-11-29T21:13:37.133Z,48.03
2022-11-29T21:16:04.240Z,42.42
2022-11-29T21:18:31.490Z,48.53
2022-11-29T21:21:30.510Z,44.13
2022-11-29T21:24:05.297Z,54.35
2022-11-29T21:26:41.792Z,49.47
2022-11-29T21:29:18.523Z,49.42
2022-11-29T21:31:45.865Z,51.13
2022-11-29T21:34:12.615Z,55.28
2022-11-29T21:36:39.454Z,49.10
2022-11-29T21:39:06.441Z,60.90
2022-11-29T21:41:33.393Z,52.58
2022-11-29T21:44:08.163Z,49.20
2022-11-29T21:46:35.513Z,43.60
2022-11-29T21:49:02.295Z,57.15
2022-11-29T21:51:29.204Z,54.83
2022-11-29T21:53:55.932Z,54.60
2022-11-29T21:56:22.726Z,52.80
2022-11-29T21:58:49.417Z,47.65
2022-11-29T22:01:17.687Z,60.65
2022-11-29T22:03:44.718Z,61.92
2022-11-29T22:06:13.112Z,52.03
2022-11-29T22:08:43.702Z,52.30
2022-11-29T22:11:11.989Z,48.20
2022-11-29T22:13:58.722Z,52.75
2022-11-29T22:16:29.292Z,54.33
2022-11-29T22:18:56.128Z,60.03
2022-11-29T22:21:22.922Z,51.95
2022-11-29T22:23:52.099Z,58.35
2022-11-29T22:26:18.810Z,60.58
2022-11-29T22:28:45.639Z,54.08
2022-11-29T22:31:13.529Z,63.47
2022-11-29T22:33:40.307Z,54.20
2022-11-29T22:36:08.788Z,52.97
2022-11-29T22:38:35.756Z,59.10
2022-11-29T22:41:03.771Z,57.22
2022-11-29T22:43:30.814Z,54.45
2022-11-29T22:46:05.379Z,61.13
2022-11-29T22:48:38.218Z,50.95
2022-11-29T22:51:09.651Z,54.88
2022-11-29T22:53:36.863Z,54.33
2022-11-29T22:56:05.063Z,48.00
2022-11-29T22:58:31.832Z,56.00
2022-11-29T23:01:09.751Z,54.15
2022-11-29T23:03:37.344Z,55.25
2022-11-29T23:06:05.025Z,51.28
2022-11-29T23:08:31.799Z,59.97
2022-11-29T23:10:58.594Z,65.15
2022-11-29T23:13:25.355Z,58.95
2022-11-29T23:15:52.620Z,63.35
2022-11-29T23:18:19.425Z,54.55
2022-11-29T23:20:46.107Z,48.60
2022-11-29T23:23:12.999Z,55.97
2022-11-29T23:25:47.381Z,54.20
2022-11-29T23:28:14.074Z,57.90
2022-11-29T23:30:40.760Z,53.80
2022-11-29T23:33:07.432Z,59.70
2022-11-29T23:35:34.130Z,55.00
2022-11-29T23:38:00.789Z,54.17
2022-11-29T23:40:27.534Z,55.97
2022-11-29T23:42:54.226Z,46.20
2022-11-29T23:45:20.894Z,49.88
2022-11-29T23:47:47.726Z,51.03
2022-11-29T23:50:14.496Z,46.42
2022-11-29T23:52:41.167Z,50.25
2022-11-29T23:55:08.574Z,50.30
2022-11-29T23:57:35.247Z,46.17
